createdAt,value
2016-09-23T00:00:01.758Z,0
2016-09-23T00:01:01.761Z,0
2016-09-23T00:02:01.746Z,0
2016-09-23T00:03:01.738Z,0
2016-09-23T00:04:01.731Z,0
2016-09-23T00:05:01.725Z,0
2016-09-23T00:06:01.712Z,0
2016-09-23T00:07:01.710Z,0
2016-09-23T00:08:01.698Z,0
2016-09-23T00:09:01.702Z,0
2016-09-23T00:10:01.695Z,0
2016-09-23T00:11:01.683Z,0
2016-09-23T00:12:04.679Z,0
2016-09-23T00:13:02.414Z,0
2016-09-23T00:14:02.065Z,0
2016-09-23T00:15:01.647Z,0
2016-09-23T00:16:01.645Z,0
2016-09-23T00:17:01.883Z,0
2016-09-23T00:18:01.631Z,0
2016-09-23T00:19:01.622Z,0
2016-09-23T00:20:01.618Z,0
2016-09-23T00:21:02.109Z,0
2016-09-23T00:22:03.308Z,0
2016-09-23T00:24:01.732Z,0
2016-09-23T00:25:01.577Z,0
2016-09-23T00:26:01.979Z,0
2016-09-23T00:27:01.818Z,0
2016-09-23T00:28:02.012Z,0
2016-09-23T00:29:01.563Z,0
2016-09-23T00:30:01.553Z,0
2016-09-23T00:31:01.543Z,0
2016-09-23T00:32:01.784Z,0
2016-09-23T00:33:01.520Z,0
2016-09-23T00:34:01.529Z,0
2016-09-23T00:35:01.517Z,0
2016-09-23T00:36:01.518Z,0
2016-09-23T00:37:01.834Z,0
2016-09-23T00:38:01.491Z,0
2016-09-23T00:39:02.095Z,0
2016-09-23T00:40:03.454Z,0
2016-09-23T00:41:01.477Z,0
2016-09-23T00:42:01.711Z,0
2016-09-23T00:43:02.830Z,0
2016-09-23T00:44:01.455Z,0
2016-09-23T00:45:01.613Z,0
2016-09-23T00:46:01.446Z,0
2016-09-23T00:47:01.695Z,0
2016-09-23T00:48:04.419Z,0
2016-09-23T00:49:01.928Z,0
2016-09-23T00:50:03.346Z,0
2016-09-23T00:51:03.083Z,0
2016-09-23T00:52:02.023Z,0
2016-09-23T00:53:01.386Z,0
2016-09-23T00:54:01.389Z,0
2016-09-23T00:55:01.396Z,0
2016-09-23T00:56:01.680Z,0
2016-09-23T00:57:01.366Z,0
2016-09-23T00:58:01.356Z,0
2016-09-23T00:59:01.351Z,0
2016-09-23T01:00:01.644Z,0
2016-09-23T01:01:01.340Z,0
2016-09-23T01:02:01.333Z,0
2016-09-23T01:03:01.315Z,0
2016-09-23T01:04:01.307Z,0
2016-09-23T01:05:01.612Z,0
2016-09-23T01:06:01.302Z,0
2016-09-23T01:07:01.295Z,0
2016-09-23T01:08:01.288Z,0
2016-09-23T01:09:01.269Z,0
2016-09-23T01:10:01.281Z,0
2016-09-23T01:11:01.271Z,0
2016-09-23T01:12:01.257Z,0
2016-09-23T01:13:01.257Z,0
2016-09-23T01:14:01.246Z,0
2016-09-23T01:15:01.237Z,0
2016-09-23T01:16:01.230Z,0
2016-09-23T01:17:01.224Z,0
2016-09-23T01:18:01.218Z,0
2016-09-23T01:19:01.220Z,0
2016-09-23T01:20:01.220Z,0
2016-09-23T01:21:01.196Z,0
2016-09-23T01:22:01.192Z,0
2016-09-23T01:23:01.182Z,0
2016-09-23T01:24:01.169Z,0
2016-09-23T01:25:01.160Z,0
2016-09-23T01:26:01.166Z,0
2016-09-23T01:27:01.148Z,0
2016-09-23T01:28:01.155Z,0
2016-09-23T01:29:01.133Z,0
2016-09-23T01:30:01.386Z,0
2016-09-23T01:31:01.480Z,0
2016-09-23T01:32:01.467Z,0
2016-09-23T01:33:01.109Z,0
2016-09-23T01:34:16.011Z,0
2016-09-23T01:35:01.099Z,0
2016-09-23T01:36:01.294Z,0
2016-09-23T01:37:01.093Z,0
2016-09-23T01:38:01.079Z,0
2016-09-23T01:39:01.965Z,0
2016-09-23T01:41:01.409Z,0
2016-09-23T01:42:01.043Z,0
2016-09-23T01:43:01.040Z,0
2016-09-23T01:44:01.538Z,0
2016-09-23T01:45:01.023Z,0
2016-09-23T01:46:01.013Z,0
2016-09-23T01:47:01.013Z,0
2016-09-23T01:48:00.999Z,0
2016-09-23T01:49:01.001Z,0
2016-09-23T01:50:00.987Z,0
2016-09-23T01:51:00.981Z,0
2016-09-23T01:52:00.975Z,0
2016-09-23T01:53:00.966Z,0
2016-09-23T01:54:00.972Z,0
2016-09-23T01:55:00.946Z,0
2016-09-23T01:56:00.941Z,0
2016-09-23T01:57:00.947Z,0
2016-09-23T01:58:02.553Z,0
2016-09-23T01:59:00.916Z,0
2016-09-23T02:00:01.009Z,0
2016-09-23T02:01:00.968Z,0
2016-09-23T02:02:01.752Z,0
2016-09-23T02:03:00.907Z,0
2016-09-23T02:04:00.886Z,0
2016-09-23T02:05:00.869Z,0
2016-09-23T02:06:00.871Z,0
2016-09-23T02:07:01.192Z,0
2016-09-23T02:08:03.013Z,0
2016-09-23T02:09:02.984Z,0
2016-09-23T02:10:02.229Z,0
2016-09-23T02:11:00.842Z,0
2016-09-23T02:12:01.533Z,0
2016-09-23T02:13:00.811Z,0
2016-09-23T02:14:00.958Z,0
2016-09-23T02:15:00.796Z,0
2016-09-23T02:16:00.791Z,0
2016-09-23T02:17:00.784Z,0
2016-09-23T02:18:00.766Z,0
2016-09-23T02:19:00.765Z,0
2016-09-23T02:20:00.757Z,0
2016-09-23T02:21:00.751Z,0
2016-09-23T02:22:00.752Z,0
2016-09-23T02:23:00.732Z,0
2016-09-23T02:24:00.724Z,0
2016-09-23T02:25:00.715Z,0
2016-09-23T02:26:00.717Z,0
2016-09-23T02:27:00.705Z,0
2016-09-23T02:28:00.705Z,0
2016-09-23T02:29:00.690Z,0
2016-09-23T02:30:00.690Z,0
2016-09-23T02:31:00.682Z,0
2016-09-23T02:32:00.663Z,0
2016-09-23T02:33:00.671Z,0
2016-09-23T02:34:00.669Z,0
2016-09-23T02:35:00.954Z,0
2016-09-23T02:36:00.656Z,0
2016-09-23T02:37:00.639Z,0
2016-09-23T02:38:00.626Z,0
2016-09-23T02:39:00.617Z,0
2016-09-23T02:40:00.602Z,0
2016-09-23T02:41:00.601Z,0
2016-09-23T02:42:00.597Z,0
2016-09-23T02:43:00.581Z,0
2016-09-23T02:44:00.578Z,0
2016-09-23T02:45:00.572Z,0
2016-09-23T02:46:00.574Z,0
2016-09-23T02:47:00.550Z,0
2016-09-23T02:48:00.956Z,0
2016-09-23T02:49:00.650Z,0
2016-09-23T02:50:01.286Z,0
2016-09-23T02:51:00.528Z,0
2016-09-23T02:52:00.669Z,0
2016-09-23T02:53:00.515Z,0
2016-09-23T02:54:01.058Z,0
2016-09-23T02:55:00.512Z,0
2016-09-23T02:56:00.489Z,0
2016-09-23T02:57:15.399Z,0
2016-09-23T02:58:01.191Z,0
2016-09-23T02:59:00.617Z,0
2016-09-23T03:00:00.480Z,0
2016-09-23T03:01:00.461Z,0
2016-09-23T03:02:00.609Z,0
2016-09-23T03:03:00.453Z,0
2016-09-23T03:04:00.441Z,0
2016-09-23T03:05:00.427Z,0
2016-09-23T03:06:00.421Z,0
2016-09-23T03:07:00.416Z,0
2016-09-23T03:08:00.407Z,0
2016-09-23T03:09:00.402Z,0
2016-09-23T03:10:00.397Z,0
2016-09-23T03:11:00.384Z,0
2016-09-23T03:12:00.373Z,0
2016-09-23T03:13:00.377Z,0
2016-09-23T03:14:00.356Z,0
2016-09-23T03:15:00.347Z,0
2016-09-23T03:16:01.964Z,0
2016-09-23T03:17:00.738Z,0
2016-09-23T03:18:01.249Z,0
2016-09-23T03:19:01.414Z,0
2016-09-23T03:20:00.388Z,0
2016-09-23T03:21:01.104Z,0
2016-09-23T03:22:00.311Z,0
2016-09-23T03:23:00.290Z,0
2016-09-23T03:24:00.281Z,0
2016-09-23T03:25:00.643Z,0
2016-09-23T03:26:02.788Z,0
2016-09-23T03:27:00.273Z,0
2016-09-23T03:28:00.347Z,0
2016-09-23T03:29:01.534Z,0
2016-09-23T03:30:00.306Z,0
2016-09-23T03:31:00.497Z,0
2016-09-23T03:32:00.325Z,0
2016-09-23T03:33:00.524Z,0
2016-09-23T03:34:00.218Z,0
2016-09-23T03:35:00.207Z,0
2016-09-23T03:36:00.193Z,0
2016-09-23T03:37:00.188Z,0
2016-09-23T03:38:00.484Z,0
2016-09-23T03:39:00.179Z,0
2016-09-23T03:40:00.175Z,0
2016-09-23T03:41:00.160Z,0
2016-09-23T03:42:00.159Z,0
2016-09-23T03:43:00.146Z,0
2016-09-23T03:44:00.138Z,0
2016-09-23T03:45:00.133Z,0
2016-09-23T03:46:00.115Z,0
2016-09-23T03:47:00.117Z,0
2016-09-23T03:48:00.104Z,0
2016-09-23T03:49:00.100Z,0
2016-09-23T03:50:00.093Z,0
2016-09-23T03:51:00.085Z,0
2016-09-23T03:52:00.081Z,0
2016-09-23T03:53:00.073Z,0
2016-09-23T03:54:00.059Z,0
2016-09-23T03:55:00.052Z,0
2016-09-23T03:56:00.050Z,0
2016-09-23T03:57:00.040Z,0
2016-09-23T03:58:00.042Z,0
2016-09-23T03:59:00.036Z,0
2016-09-23T04:00:00.025Z,0
2016-09-23T04:01:00.018Z,0
2016-09-23T04:02:00.007Z,0
2016-09-23T04:03:00.002Z,0
2016-09-23T04:03:59.987Z,0
2016-09-23T04:04:59.983Z,0
2016-09-23T04:06:00.876Z,0
2016-09-23T04:07:00.510Z,0
2016-09-23T04:08:00.411Z,0
2016-09-23T04:09:00.053Z,0
2016-09-23T04:10:00.904Z,0
2016-09-23T04:10:59.940Z,0
2016-09-23T04:11:59.928Z,0
2016-09-23T04:12:59.923Z,0
2016-09-23T04:13:59.914Z,0
2016-09-23T04:15:15.667Z,0
2016-09-23T04:16:14.808Z,0
2016-09-23T04:17:00.442Z,0
2016-09-23T04:17:59.880Z,4
2016-09-23T04:18:59.874Z,4
2016-09-23T04:20:00.214Z,4
2016-09-23T04:20:59.865Z,0
2016-09-23T04:21:59.854Z,4
2016-09-23T04:22:59.850Z,4
2016-09-23T04:23:59.836Z,4
2016-09-23T04:24:59.830Z,8
2016-09-23T04:25:59.822Z,8
2016-09-23T04:26:59.814Z,8
2016-09-23T04:27:59.802Z,8
2016-09-23T04:28:59.794Z,12
2016-09-23T04:29:59.795Z,16
2016-09-23T04:30:59.787Z,16
2016-09-23T04:31:59.780Z,20
2016-09-23T04:32:59.771Z,20
2016-09-23T04:34:01.611Z,28
2016-09-23T04:35:00.376Z,32
2016-09-23T04:36:01.172Z,36
2016-09-23T04:37:01.634Z,44
2016-09-23T04:38:00.865Z,52
2016-09-23T04:38:59.735Z,60
2016-09-23T04:40:00.063Z,68
2016-09-23T04:40:59.896Z,80
2016-09-23T04:41:59.696Z,92
2016-09-23T04:42:59.913Z,104
2016-09-23T04:44:02.524Z,120
2016-09-23T04:44:59.934Z,136
2016-09-23T04:46:00.624Z,156
2016-09-23T04:46:59.980Z,176
2016-09-23T04:47:59.652Z,200
2016-09-23T04:48:59.639Z,220
2016-09-23T04:49:59.630Z,244
2016-09-23T04:50:59.629Z,264
2016-09-23T04:51:59.636Z,288
2016-09-23T04:52:59.616Z,316
2016-09-23T04:53:59.603Z,348
2016-09-23T04:54:59.599Z,380
2016-09-23T04:55:59.590Z,412
2016-09-23T04:56:59.581Z,440
2016-09-23T04:57:59.574Z,472
2016-09-23T04:58:59.559Z,504
2016-09-23T04:59:59.556Z,536
2016-09-23T05:00:59.546Z,564
2016-09-23T05:01:59.536Z,592
2016-09-23T05:02:59.532Z,636
2016-09-23T05:03:59.544Z,692
2016-09-23T05:04:59.518Z,740
2016-09-23T05:05:59.507Z,792
2016-09-23T05:06:59.504Z,844
2016-09-23T05:07:59.508Z,904
2016-09-23T05:08:59.481Z,968
2016-09-23T05:09:59.470Z,1036
2016-09-23T05:10:59.466Z,1100
2016-09-23T05:11:59.457Z,1160
2016-09-23T05:12:59.457Z,1224
2016-09-23T05:13:59.458Z,1280
2016-09-23T05:14:59.472Z,1336
2016-09-23T05:15:59.464Z,1396
2016-09-23T05:16:59.459Z,1448
2016-09-23T05:17:59.415Z,1508
2016-09-23T05:18:59.457Z,1568
2016-09-23T05:19:59.399Z,1632
2016-09-23T05:20:59.399Z,1696
2016-09-23T05:21:59.392Z,1756
2016-09-23T05:22:59.673Z,1824
2016-09-23T05:24:00.621Z,1880
2016-09-23T05:25:00.411Z,1932
2016-09-23T05:25:59.356Z,1984
2016-09-23T05:27:00.098Z,2028
2016-09-23T05:28:00.086Z,2084
2016-09-23T05:28:59.483Z,2144
2016-09-23T05:29:59.331Z,2224
2016-09-23T05:30:59.610Z,2316
2016-09-23T05:31:59.318Z,2404
2016-09-23T05:32:59.703Z,2484
2016-09-23T05:34:00.195Z,2552
2016-09-23T05:35:00.285Z,2612
2016-09-23T05:35:59.281Z,2672
2016-09-23T05:36:59.425Z,2732
2016-09-23T05:37:59.313Z,2780
2016-09-23T05:38:59.266Z,2820
2016-09-23T05:39:59.245Z,2860
2016-09-23T05:40:59.243Z,2888
2016-09-23T05:41:59.234Z,2924
2016-09-23T05:42:59.226Z,2956
2016-09-23T05:43:59.221Z,3012
2016-09-23T05:44:59.214Z,3080
2016-09-23T05:45:59.346Z,3136
2016-09-23T05:46:59.198Z,3188
2016-09-23T05:47:59.195Z,3252
2016-09-23T05:48:59.440Z,3308
2016-09-23T05:49:59.180Z,3388
2016-09-23T05:50:59.172Z,3436
2016-09-23T05:52:01.509Z,3460
2016-09-23T05:53:00.975Z,3516
2016-09-23T05:54:00.268Z,3572
2016-09-23T05:55:00.185Z,3652
2016-09-23T05:55:59.987Z,3752
2016-09-23T05:56:59.455Z,3860
2016-09-23T05:57:59.129Z,4000
2016-09-23T05:58:59.118Z,4152
2016-09-23T05:59:59.119Z,4332
2016-09-23T06:01:00.933Z,4556
2016-09-23T06:02:00.972Z,4768
2016-09-23T06:03:00.418Z,4976
2016-09-23T06:04:00.631Z,5204
2016-09-23T06:05:00.623Z,5448
2016-09-23T06:06:00.208Z,5716
2016-09-23T06:06:59.076Z,6044
2016-09-23T06:07:59.127Z,6436
2016-09-23T06:08:59.098Z,6812
2016-09-23T06:09:59.049Z,7156
2016-09-23T06:10:59.042Z,7504
2016-09-23T06:11:59.031Z,7816
2016-09-23T06:12:59.024Z,8228
2016-09-23T06:13:59.013Z,8676
2016-09-23T06:14:59.011Z,9336
2016-09-23T06:15:59.004Z,10028
2016-09-23T06:16:59.004Z,10488
2016-09-23T06:17:58.988Z,11896
2016-09-23T06:18:58.990Z,13040
2016-09-23T06:19:58.990Z,13884
2016-09-23T06:20:58.995Z,14688
2016-09-23T06:21:58.974Z,15168
2016-09-23T06:22:58.965Z,15520
2016-09-23T06:23:58.961Z,15360
2016-09-23T06:24:59.261Z,14516
2016-09-23T06:25:58.952Z,15648
2016-09-23T06:26:58.949Z,15712
2016-09-23T06:27:58.942Z,15296
2016-09-23T06:28:58.945Z,15264
2016-09-23T06:29:58.953Z,14752
2016-09-23T06:30:58.936Z,13800
2016-09-23T06:31:58.938Z,13364
2016-09-23T06:32:58.935Z,12908
2016-09-23T06:33:58.921Z,12376
2016-09-23T06:34:58.921Z,12360
2016-09-23T06:35:58.945Z,12096
2016-09-23T06:36:58.911Z,11912
2016-09-23T06:37:58.914Z,11564
2016-09-23T06:38:58.908Z,11248
2016-09-23T06:39:58.910Z,11124
2016-09-23T06:40:58.909Z,11148
2016-09-23T06:41:59.604Z,10992
2016-09-23T06:43:14.369Z,10484
2016-09-23T06:43:59.653Z,10404
2016-09-23T06:44:59.149Z,10300
2016-09-23T06:45:59.150Z,10152
2016-09-23T06:46:59.351Z,9692
2016-09-23T06:47:58.890Z,9684
2016-09-23T06:48:59.046Z,9184
2016-09-23T06:49:59.144Z,8888
2016-09-23T06:50:58.982Z,8708
2016-09-23T06:52:13.805Z,8488
2016-09-23T06:53:00.140Z,8352
2016-09-23T06:53:59.188Z,8168
2016-09-23T06:54:59.782Z,8032
2016-09-23T06:55:59.329Z,7944
2016-09-23T06:56:58.876Z,7896
2016-09-23T06:57:58.901Z,7880
2016-09-23T06:58:58.882Z,7920
2016-09-23T06:59:59.225Z,8016
2016-09-23T07:00:58.870Z,8108
2016-09-23T07:01:58.875Z,8184
2016-09-23T07:02:58.867Z,8252
2016-09-23T07:03:59.181Z,8332
2016-09-23T07:04:59.119Z,8416
2016-09-23T07:05:58.857Z,8508
2016-09-23T07:06:58.865Z,8616
2016-09-23T07:07:58.868Z,8732
2016-09-23T07:08:58.862Z,8872
2016-09-23T07:10:00.616Z,9028
2016-09-23T07:10:58.948Z,9180
2016-09-23T07:12:00.673Z,9344
2016-09-23T07:12:58.878Z,9520
2016-09-23T07:13:59.054Z,9564
2016-09-23T07:14:59.198Z,9648
2016-09-23T07:15:58.845Z,9696
2016-09-23T07:16:58.844Z,9772
2016-09-23T07:17:58.835Z,9792
2016-09-23T07:18:59.075Z,9672
2016-09-23T07:19:59.101Z,9524
2016-09-23T07:21:00.883Z,9420
2016-09-23T07:21:59.178Z,9336
2016-09-23T07:22:59.425Z,9244
2016-09-23T07:23:59.235Z,9116
2016-09-23T07:24:59.081Z,9000
2016-09-23T07:25:58.823Z,8892
2016-09-23T07:26:58.821Z,8812
2016-09-23T07:27:58.823Z,8756
2016-09-23T07:28:58.814Z,8724
2016-09-23T07:29:59.065Z,8728
2016-09-23T07:30:58.822Z,8772
2016-09-23T07:31:58.813Z,8844
2016-09-23T07:32:58.806Z,8948
2016-09-23T07:33:58.802Z,9088
2016-09-23T07:34:59.052Z,9284
2016-09-23T07:35:58.804Z,9492
2016-09-23T07:36:58.800Z,9608
2016-09-23T07:37:58.789Z,9780
2016-09-23T07:38:58.790Z,9680
2016-09-23T07:39:59.136Z,10036
2016-09-23T07:40:58.784Z,10356
2016-09-23T07:42:24.462Z,10652
2016-09-23T07:42:58.781Z,11192
2016-09-23T07:43:58.783Z,11752
2016-09-23T07:44:59.028Z,12204
2016-09-23T07:45:58.784Z,12956
2016-09-23T07:46:58.782Z,13640
2016-09-23T07:47:58.782Z,14300
2016-09-23T07:48:58.763Z,15036
2016-09-23T07:49:59.015Z,15404
2016-09-23T07:50:58.764Z,15244
2016-09-23T07:51:58.759Z,14940
2016-09-23T07:52:58.759Z,15940
2016-09-23T07:53:58.762Z,17120
2016-09-23T07:54:59.061Z,18592
2016-09-23T07:55:58.753Z,18784
2016-09-23T07:56:58.752Z,18432
2016-09-23T07:57:58.756Z,17504
2016-09-23T07:58:58.756Z,17344
2016-09-23T07:59:59.396Z,17568
2016-09-23T08:00:59.797Z,17408
2016-09-23T08:02:13.811Z,17184
2016-09-23T08:03:30.852Z,17088
2016-09-23T08:03:58.901Z,17056
2016-09-23T08:05:05.307Z,17312
2016-09-23T08:05:59.053Z,17696
2016-09-23T08:06:58.754Z,17888
2016-09-23T08:07:58.747Z,18240
2016-09-23T08:08:59.900Z,18304
2016-09-23T08:10:02.739Z,17984
2016-09-23T08:10:59.343Z,17568
2016-09-23T08:11:58.733Z,17184
2016-09-23T08:12:59.443Z,16688
2016-09-23T08:13:58.745Z,16804
2016-09-23T08:14:58.737Z,16696
2016-09-23T08:15:58.762Z,16808
2016-09-23T08:16:58.743Z,16636
2016-09-23T08:17:58.748Z,16468
2016-09-23T08:18:58.734Z,16264
2016-09-23T08:19:58.741Z,16044
2016-09-23T08:20:58.743Z,15812
2016-09-23T08:21:58.743Z,15656
2016-09-23T08:22:58.751Z,15524
2016-09-23T08:23:58.741Z,15416
2016-09-23T08:24:58.743Z,15272
2016-09-23T08:25:58.741Z,15220
2016-09-23T08:26:58.751Z,15244
2016-09-23T08:29:00.759Z,15228
2016-09-23T08:29:59.149Z,15144
2016-09-23T08:31:00.722Z,14864
2016-09-23T08:31:58.751Z,14492
2016-09-23T08:32:58.749Z,14116
2016-09-23T08:33:59.171Z,13800
2016-09-23T08:34:58.758Z,13692
2016-09-23T08:35:58.756Z,13668
2016-09-23T08:37:00.961Z,13784
2016-09-23T08:38:00.815Z,13884
2016-09-23T08:38:59.414Z,13852
2016-09-23T08:39:58.752Z,13768
2016-09-23T08:40:58.759Z,13844
2016-09-23T08:41:58.758Z,14192
2016-09-23T08:42:58.763Z,14724
2016-09-23T08:43:58.753Z,15164
2016-09-23T08:44:58.768Z,15540
2016-09-23T08:45:58.763Z,15804
2016-09-23T08:46:58.761Z,15952
2016-09-23T08:47:58.757Z,15796
2016-09-23T08:48:58.760Z,15468
2016-09-23T08:49:58.763Z,15152
2016-09-23T08:50:58.759Z,15196
2016-09-23T08:51:58.767Z,15188
2016-09-23T08:52:59.070Z,15192
2016-09-23T08:53:58.765Z,14912
2016-09-23T08:54:58.775Z,14568
2016-09-23T08:55:58.761Z,14560
2016-09-23T08:56:58.771Z,14688
2016-09-23T08:57:58.771Z,14680
2016-09-23T08:58:58.777Z,14740
2016-09-23T08:59:58.774Z,14812
2016-09-23T09:00:58.779Z,14832
2016-09-23T09:01:58.784Z,14836
2016-09-23T09:02:58.780Z,14964
2016-09-23T09:03:58.783Z,15088
2016-09-23T09:04:58.779Z,15336
2016-09-23T09:05:58.802Z,15612
2016-09-23T09:06:58.788Z,15912
2016-09-23T09:07:58.789Z,16208
2016-09-23T09:08:58.798Z,16792
2016-09-23T09:09:58.792Z,17376
2016-09-23T09:10:58.812Z,17792
2016-09-23T09:11:58.791Z,18112
2016-09-23T09:12:58.813Z,18208
2016-09-23T09:13:58.800Z,17984
2016-09-23T09:14:58.800Z,17760
2016-09-23T09:15:58.808Z,17472
2016-09-23T09:16:58.810Z,16992
2016-09-23T09:18:14.570Z,16308
2016-09-23T09:18:59.107Z,15824
2016-09-23T09:20:00.168Z,15524
2016-09-23T09:20:59.616Z,15220
2016-09-23T09:21:58.868Z,15200
2016-09-23T09:22:58.825Z,14932
2016-09-23T09:23:58.824Z,14548
2016-09-23T09:24:58.826Z,14260
2016-09-23T09:25:58.831Z,14112
2016-09-23T09:27:00.009Z,13880
2016-09-23T09:27:59.092Z,13436
2016-09-23T09:28:58.838Z,13288
2016-09-23T09:30:13.759Z,13164
2016-09-23T09:30:59.041Z,13148
2016-09-23T09:31:59.444Z,13348
2016-09-23T09:32:59.094Z,13520
2016-09-23T09:33:58.851Z,13652
2016-09-23T09:34:58.855Z,13660
2016-09-23T09:35:58.861Z,13612
2016-09-23T09:36:58.858Z,13416
2016-09-23T09:37:58.859Z,13144
2016-09-23T09:38:58.862Z,13324
2016-09-23T09:39:58.862Z,13500
2016-09-23T09:40:58.876Z,13344
2016-09-23T09:41:58.873Z,13788
2016-09-23T09:42:58.880Z,13356
2016-09-23T09:43:58.885Z,12920
2016-09-23T09:44:58.876Z,12288
2016-09-23T09:46:00.398Z,12324
2016-09-23T09:47:00.854Z,12580
2016-09-23T09:48:00.896Z,12652
2016-09-23T09:48:59.460Z,12816
2016-09-23T09:49:59.915Z,12996
2016-09-23T09:50:59.383Z,13220
2016-09-23T09:51:58.900Z,13128
2016-09-23T09:52:58.904Z,13440
2016-09-23T09:53:58.907Z,13240
2016-09-23T09:55:25.305Z,13068
2016-09-23T09:56:01.003Z,12684
2016-09-23T09:57:01.128Z,12940
2016-09-23T09:57:59.806Z,12712
2016-09-23T09:59:00.322Z,12616
2016-09-23T09:59:59.893Z,12308
2016-09-23T10:00:59.199Z,12384
2016-09-23T10:01:58.928Z,12608
2016-09-23T10:02:59.233Z,13072
2016-09-23T10:03:58.928Z,13552
2016-09-23T10:04:58.927Z,14236
2016-09-23T10:05:58.933Z,14996
2016-09-23T10:06:58.943Z,15536
2016-09-23T10:07:58.930Z,15668
2016-09-23T10:08:58.944Z,15312
2016-09-23T10:09:58.951Z,14328
2016-09-23T10:10:58.939Z,13624
2016-09-23T10:11:58.946Z,13184
2016-09-23T10:12:58.961Z,12432
2016-09-23T10:13:58.957Z,11640
2016-09-23T10:14:58.976Z,11152
2016-09-23T10:15:58.961Z,11252
2016-09-23T10:16:58.981Z,11540
2016-09-23T10:17:58.957Z,11772
2016-09-23T10:18:58.957Z,11772
2016-09-23T10:19:58.958Z,11624
2016-09-23T10:20:58.959Z,10892
2016-09-23T10:21:58.965Z,11020
2016-09-23T10:22:58.976Z,10624
2016-09-23T10:23:58.982Z,10644
2016-09-23T10:24:58.981Z,10488
2016-09-23T10:25:58.977Z,10820
2016-09-23T10:26:58.982Z,10820
2016-09-23T10:27:58.990Z,11684
2016-09-23T10:28:58.984Z,12072
2016-09-23T10:29:58.995Z,11408
2016-09-23T10:30:59.009Z,11672
2016-09-23T10:31:58.992Z,11920
2016-09-23T10:32:58.995Z,11700
2016-09-23T10:33:59.001Z,11396
2016-09-23T10:34:59.001Z,11764
2016-09-23T10:36:00.276Z,10996
2016-09-23T10:37:13.923Z,10648
2016-09-23T10:37:59.310Z,10524
2016-09-23T10:38:59.013Z,10740
2016-09-23T10:39:59.767Z,10696
2016-09-23T10:40:59.018Z,10984
2016-09-23T10:41:59.007Z,11508
2016-09-23T10:42:59.024Z,11304
2016-09-23T10:43:59.018Z,11040
2016-09-23T10:45:00.977Z,11212
2016-09-23T10:45:59.082Z,11180
2016-09-23T10:46:59.923Z,10852
2016-09-23T10:47:59.490Z,10640
2016-09-23T10:48:59.230Z,10604
2016-09-23T10:49:59.033Z,10388
2016-09-23T10:50:59.043Z,10780
2016-09-23T10:51:59.029Z,10552
2016-09-23T10:52:59.339Z,10680
2016-09-23T10:53:59.652Z,10456
2016-09-23T10:54:59.044Z,10404
2016-09-23T10:55:59.059Z,10176
2016-09-23T10:56:59.040Z,10200
2016-09-23T10:57:59.051Z,10092
2016-09-23T10:58:59.053Z,9944
2016-09-23T10:59:59.203Z,9724
2016-09-23T11:00:59.060Z,9860
2016-09-23T11:01:59.057Z,9908
2016-09-23T11:02:59.057Z,9852
2016-09-23T11:05:02.247Z,9684
2016-09-23T11:06:01.000Z,9704
2016-09-23T11:06:59.796Z,9768
2016-09-23T11:08:00.527Z,9736
2016-09-23T11:08:59.070Z,9676
2016-09-23T11:09:59.073Z,9624
2016-09-23T11:10:59.073Z,9408
2016-09-23T11:11:59.153Z,9524
2016-09-23T11:13:02.173Z,9040
2016-09-23T11:14:02.392Z,9096
2016-09-23T11:15:01.281Z,9012
2016-09-23T11:16:00.224Z,9000
2016-09-23T11:16:59.081Z,9176
2016-09-23T11:17:59.088Z,9364
2016-09-23T11:18:59.085Z,9348
2016-09-23T11:19:59.392Z,9308
2016-09-23T11:20:59.086Z,9156
2016-09-23T11:21:59.096Z,9104
2016-09-23T11:22:59.093Z,8992
2016-09-23T11:23:59.090Z,8892
2016-09-23T11:24:59.103Z,8852
2016-09-23T11:25:59.105Z,8876
2016-09-23T11:26:59.101Z,8924
2016-09-23T11:27:59.098Z,8920
2016-09-23T11:28:59.400Z,8936
2016-09-23T11:29:59.102Z,8920
2016-09-23T11:30:59.097Z,8940
2016-09-23T11:31:59.122Z,8920
2016-09-23T11:32:59.103Z,8868
2016-09-23T11:33:59.107Z,8832
2016-09-23T11:34:59.111Z,8812
2016-09-23T11:35:59.105Z,8872
2016-09-23T11:36:59.113Z,8888
2016-09-23T11:37:59.116Z,8892
2016-09-23T11:38:59.115Z,8880
2016-09-23T11:39:59.135Z,8848
2016-09-23T11:40:59.108Z,8844
2016-09-23T11:41:59.113Z,8884
2016-09-23T11:42:59.148Z,8936
2016-09-23T11:43:59.119Z,8968
2016-09-23T11:44:59.123Z,8984
2016-09-23T11:45:59.420Z,8944
2016-09-23T11:46:59.123Z,8976
2016-09-23T11:47:59.126Z,9076
2016-09-23T11:48:59.120Z,9116
2016-09-23T11:49:59.120Z,9116
2016-09-23T11:50:59.128Z,9108
2016-09-23T11:51:59.126Z,9100
2016-09-23T11:52:59.125Z,9132
2016-09-23T11:53:59.782Z,9140
2016-09-23T11:54:59.552Z,8540
2016-09-23T11:57:59.128Z,9480
2016-09-23T11:58:59.131Z,9344
2016-09-23T11:59:59.135Z,9264
2016-09-23T12:00:59.129Z,9220
2016-09-23T12:01:59.136Z,9236
2016-09-23T12:02:59.645Z,9356
2016-09-23T12:03:59.896Z,9452
2016-09-23T12:04:59.586Z,9552
2016-09-23T12:05:59.210Z,9696
2016-09-23T12:06:59.552Z,9812
2016-09-23T12:07:59.138Z,9940
2016-09-23T12:08:59.143Z,10256
2016-09-23T12:09:59.148Z,10588
2016-09-23T12:10:59.155Z,10776
2016-09-23T12:11:59.146Z,10808
2016-09-23T12:12:59.149Z,10776
2016-09-23T12:13:59.149Z,10804
2016-09-23T12:14:59.145Z,10992
2016-09-23T12:15:59.154Z,11428
2016-09-23T12:16:59.154Z,11964
2016-09-23T12:17:59.150Z,12552
2016-09-23T12:18:59.450Z,13216
2016-09-23T12:19:59.167Z,13904
2016-09-23T12:20:59.166Z,14912
2016-09-23T12:22:02.240Z,15556
2016-09-23T12:23:02.429Z,15640
2016-09-23T12:23:59.397Z,15456
2016-09-23T12:24:59.176Z,14796
2016-09-23T12:25:59.465Z,13844
2016-09-23T12:26:59.867Z,12180
2016-09-23T12:27:59.383Z,11912
2016-09-23T12:28:59.175Z,11688
2016-09-23T12:29:59.179Z,12284
2016-09-23T12:31:01.385Z,13040
2016-09-23T12:32:02.432Z,13544
2016-09-23T12:32:59.619Z,13500
2016-09-23T12:33:59.182Z,13388
2016-09-23T12:34:59.962Z,13436
2016-09-23T12:35:59.183Z,13508
2016-09-23T12:36:59.191Z,12884
2016-09-23T12:37:59.188Z,12604
2016-09-23T12:38:59.201Z,12812
2016-09-23T12:39:59.193Z,12636
2016-09-23T12:40:59.202Z,12000
2016-09-23T12:41:59.219Z,12020
2016-09-23T12:42:59.207Z,12660
2016-09-23T12:43:59.200Z,13252
2016-09-23T12:44:59.228Z,13544
2016-09-23T12:45:59.206Z,13860
2016-09-23T12:46:59.215Z,14308
2016-09-23T12:47:59.218Z,14340
2016-09-23T12:48:59.222Z,14004
2016-09-23T12:49:59.228Z,13272
2016-09-23T12:50:59.523Z,12576
2016-09-23T12:51:59.224Z,11680
2016-09-23T12:52:59.230Z,11096
2016-09-23T12:53:59.229Z,10816
2016-09-23T12:54:59.234Z,10388
2016-09-23T12:55:59.240Z,9944
2016-09-23T12:56:59.251Z,9584
2016-09-23T12:57:59.249Z,9348
2016-09-23T12:58:59.254Z,9476
2016-09-23T12:59:59.264Z,9840
2016-09-23T13:00:59.255Z,10340
2016-09-23T13:01:59.262Z,10704
2016-09-23T13:02:59.263Z,10764
2016-09-23T13:03:59.277Z,11076
2016-09-23T13:04:59.270Z,11124
2016-09-23T13:05:59.269Z,10764
2016-09-23T13:06:59.279Z,10644
2016-09-23T13:07:59.273Z,10652
2016-09-23T13:08:59.298Z,10676
2016-09-23T13:09:59.281Z,10704
2016-09-23T13:10:59.286Z,10576
2016-09-23T13:11:59.939Z,10424
2016-09-23T13:13:00.036Z,10012
2016-09-23T13:13:59.900Z,9940
2016-09-23T13:14:59.596Z,10236
2016-09-23T13:15:59.997Z,10748
2016-09-23T13:16:59.346Z,11460
2016-09-23T13:17:59.302Z,11816
2016-09-23T13:18:59.295Z,11936
2016-09-23T13:19:59.314Z,11652
2016-09-23T13:21:00.362Z,11448
2016-09-23T13:22:00.405Z,11488
2016-09-23T13:22:59.773Z,11548
2016-09-23T13:23:59.618Z,11544
2016-09-23T13:24:59.316Z,11544
2016-09-23T13:25:59.321Z,11860
2016-09-23T13:26:59.434Z,12016
2016-09-23T13:27:59.317Z,12372
2016-09-23T13:28:59.333Z,12644
2016-09-23T13:29:59.334Z,13076
2016-09-23T13:30:59.333Z,13768
2016-09-23T13:31:59.342Z,13756
2016-09-23T13:32:59.337Z,13464
2016-09-23T13:33:59.352Z,12804
2016-09-23T13:34:59.349Z,12044
2016-09-23T13:35:59.353Z,11844
2016-09-23T13:36:59.349Z,12320
2016-09-23T13:37:59.357Z,12132
2016-09-23T13:38:59.353Z,11676
2016-09-23T13:41:00.366Z,12292
2016-09-23T13:42:01.051Z,12808
2016-09-23T13:43:00.090Z,12788